Nathaniel B. Palmer — WBP3210 — position and weather

sailwx.info

Track history (hours):
 
Tides and Currents Weather Stations Pressure Air Temp Water Temp Dewpoint Dewpoint Depression Visibility Wind Speed Wind Dir Waves Ship Positions

Oceanographic research ship Nathaniel B. Palmer (USA)

Contact: Ethan Norris, ethan.norris.contractor@usap.gov

Detailed information on ship capabilities available from University of Delaware's Ocean Information Center and ARCUS's ALIAS (Arctic Logistics Information and Support) project.

More information available from US FCC via Universal Licensing System and Coast Guard Vessel Documentation Center.

Last reported at 2014-Aug-01 22:00 UTC. Time now 2014-Aug-01 22:36 UTC.
Position S 24°48' W 020°30'.

Type: Other ship. MMSI: 366610000.

Wind from 200 at 3 knots

Barometer 1025.1 mb
Air temperature 18.4 ° C
Water temperature 21.4 ° C

Date/timePositionNaut miles runAvg speedWind from/ knotsBaromVisibWave heightAir tempDewpointWater temp
2014-Aug-01 22:00S 24°48' W 020°30'2010.1 200 / 31025.1 18.4 21.4
2014-Aug-01 20:00S 24°36' W 020°12'2110.5 270 / 91024.4 18.6 21.6
2014-Aug-01 18:00S 24°18' W 020°00'2412.2 170 / 31024.0 18.4 21.6
2014-Aug-01 16:00S 24°00' W 019°42'2110.5 150 / 71023.9 19.0 21.6
2014-Aug-01 14:00S 23°42' W 019°30'2010.2 170 / 101024.3 19.0 21.3
2014-Aug-01 12:00S 23°30' W 019°12'4511.3 160 / 71025.1 19.0 21.3
2014-Aug-01 08:00S 22°54' W 018°42'37 9.3 160 / 111023.3 18.5 21.4
2014-Aug-01 04:00S 22°24' W 018°18'4110.2 170 / 91022.8 18.1 21.5
2014-Aug-01 00:00S 21°54' W 017°48'16 8.2 160 / 101023.6 19.2 21.8
2014-Jul-31 22:00S 21°42' W 017°36'8 4.1 170 / 111023.5 19.1 22.2
2014-Jul-31 20:00S 21°36' W 017°30'13 3.2 150 / 81022.7 19.3 22.3
2014-Jul-31 16:00S 21°30' W 017°18'0 0.0 230 / 111021.6 20.2 22.3
2014-Jul-31 14:00S 21°30' W 017°18'0 0.0 280 / 111022.1 20.3 22.2
2014-Jul-31 12:00S 21°30' W 017°18'0 0.0 330 / 141022.5 19.8 22.3
2014-Jul-31 10:00S 21°30' W 017°18'23 3.9 360 / 131021.6 19.6 22.3
2014-Jul-31 04:00S 21°24' W 016°54'6 2.8 230 / 181019.7 19.9 21.9
2014-Jul-31 02:00S 21°24' W 016°48'13 3.2 210 / 181019.4 20.1 21.8
2014-Jul-30 22:00S 21°18' W 016°36'8 4.1 310 / 181019.8 20.1 21.9
2014-Jul-30 20:00S 21°12' W 016°30'17 8.4 200 / 231017.9 18.5 21.9
2014-Jul-30 18:00S 21°12' W 016°12'0 0.0 160 / 121018.4 23.0 21.8
2014-Jul-30 16:00S 21°12' W 016°12'0 0.0 170 / 121018.4 23.9 21.9
2014-Jul-30 14:00S 21°12' W 016°12'18 8.9 280 / 101019.4 20.5 22.0
2014-Jul-30 12:00S 21°06' W 015°54'6 3.0 290 / 61020.1 20.7 21.8
2014-Jul-30 10:00S 21°12' W 015°54'0 0.0 100 / 71020.5 20.8 21.7
2014-Jul-30 08:00S 21°12' W 015°54'36 8.9 320 / 51019.7 19.7 21.6
2014-Jul-30 04:00S 21°00' W 015°18'2311.6 040 / 101019.6 19.1 21.9
2014-Jul-30 02:00S 20°54' W 014°54'2211.2 050 / 41020.7 18.7 21.9
2014-Jul-30 00:00S 20°54' W 014°30'0 0.0 040 / 121021.0 18.7 21.7
2014-Jul-29 22:00S 20°54' W 014°30'18 4.5 070 / 91021.3 20.4 21.8
2014-Jul-29 18:00S 21°00' W 014°12'11 5.6 080 / 91020.6 20.6 21.8
2014-Jul-29 16:00S 21°00' W 014°00'0 0.0 290 / 121020.3 20.9 21.7
2014-Jul-29 14:00S 21°00' W 014°00'23 5.8 300 / 111021.7 20.7 21.7
2014-Jul-29 10:00S 20°54' W 013°36'8 4.1 130 / 111023.7 19.5 21.4
2014-Jul-29 08:00S 20°48' W 013°30'6 1.5 300 / 141023.2 19.0 21.5
2014-Jul-29 04:00S 20°42' W 013°30'0 0.0 300 / 161022.8 19.8 21.6
2014-Jul-29 02:00S 20°42' W 013°30'18 8.9 350 / 171024.2 20.2 21.6
2014-Jul-29 00:00S 20°36' W 013°48'0 0.0 280 / 161025.1 20.0 21.7
2014-Jul-28 22:00S 20°36' W 013°48'6 2.8 320 / 181025.4 19.4 21.7
2014-Jul-28 20:00S 20°36' W 013°42'13 6.4 120 / 221025.1 20.2 21.7
2014-Jul-28 18:00S 20°42' W 013°54'23 3.9 110 / 201024.9 20.8 21.7
2014-Jul-28 12:00S 20°48' W 013°30'6 2.8 110 / 221027.3 20.1 21.5
2014-Jul-28 10:00S 20°48' W 013°36'0 0.0 030 / 261027.6 18.9 21.5
2014-Jul-28 04:00S 20°48' W 013°36'0 0.0 340 / 201025.9 20.3 21.6
2014-Jul-28 02:00S 20°48' W 013°36'6 1.0 230 / 201026.7 20.4 21.6
2014-Jul-27 20:00S 20°42' W 013°36'0 0.0 280 / 211027.0 20.1 21.6
2014-Jul-27 16:00S 20°42' W 013°36'0 0.0 200 / 241026.3 20.3 21.5
2014-Jul-27 14:00S 20°42' W 013°36'6 3.0 150 / 141027.1 20.3 21.5
2014-Jul-27 12:00S 20°48' W 013°36'6 3.0 350 / 201028.6 19.9 21.5
2014-Jul-27 10:00S 20°42' W 013°36'0 0.0 350 / 291028.6 19.5 21.5
2014-Jul-27 08:00S 20°42' W 013°36'0 0.0 240 / 231027.0 19.8 21.5
2014-Jul-27 04:00S 20°42' W 013°36'0 0.0 230 / 281026.3 18.7 21.5
2014-Jul-27 02:00S 20°42' W 013°36'6 3.0 170 / 231027.6 20.0 21.5
2014-Jul-27 00:00S 20°48' W 013°36'0 0.0 010 / 231028.5 18.5 21.5
2014-Jul-26 22:00S 20°48' W 013°36'0 0.0 140 / 211027.7 20.1 21.6
2014-Jul-26 20:00S 20°48' W 013°36'0 0.0 130 / 231027.1 19.9 21.6
2014-Jul-26 16:00S 20°48' W 013°36'11 5.6 360 / 231026.9 20.2 21.6
2014-Jul-26 14:00S 20°48' W 013°24'8 2.1 070 / 281028.4 17.9 21.6
2014-Jul-26 10:00S 20°42' W 013°18'8 4.1 270 / 251029.0 19.2 21.6
2014-Jul-26 08:00S 20°36' W 013°12'6 1.5 250 / 211028.0 20.1 21.6
2014-Jul-26 04:00S 20°30' W 013°12'2311.6 070 / 181026.3 20.6 21.6
2014-Jul-26 02:00S 20°36' W 012°48'18 8.9 100 / 251028.1 23.4 21.5
2014-Jul-26 00:00S 20°30' W 012°30'13 6.4 090 / 271029.3 20.6 21.3
2014-Jul-25 22:00S 20°36' W 012°42'17 8.4 110 / 271029.3 20.3 21.4
2014-Jul-25 20:00S 20°36' W 013°00'11 5.6 110 / 251027.8 20.4 21.6
2014-Jul-25 18:00S 20°36' W 013°12'34 8.6 110 / 301027.8 20.3 21.7
2014-Jul-25 14:00S 20°42' W 013°48'17 8.4 110 / 271028.3 20.1 21.8
2014-Jul-25 12:00S 20°42' W 014°06'6 2.8 100 / 281028.7 20.2 21.8
2014-Jul-25 10:00S 20°42' W 014°12'0 0.0 260 / 261029.7 20.1 21.9
2014-Jul-25 08:00S 20°42' W 014°12'32 8.0 090 / 261028.8 20.3 21.8
2014-Jul-25 04:00S 21°12' W 014°24'6 2.8 110 / 311029.2 19.4 21.8
2014-Jul-25 02:00S 21°12' W 014°30'8 4.1 120 / 251028.7 20.5 21.9
2014-Jul-25 00:00S 21°06' W 014°24'0 0.0 110 / 251030.9 19.7 21.9
2014-Jul-24 22:00S 21°06' W 014°24'0 0.0 270 / 281030.2 20.0 21.9
2014-Jul-24 20:00S 21°06' W 014°24'0 0.0 110 / 201029.0 19.2 21.9
2014-Jul-24 18:00S 21°06' W 014°24'11 5.6 310 / 221028.5 18.3 21.9
2014-Jul-24 16:00S 21°06' W 014°12'0 0.0 120 / 231028.5 22.6 21.9
2014-Jul-24 14:00S 21°06' W 014°12'13 6.6 140 / 261029.0 19.8 21.9
2014-Jul-24 12:00S 21°18' W 014°18'6 2.8 120 / 191030.9 19.2 21.9
2014-Jul-24 10:00S 21°18' W 014°24'18 9.0 130 / 241029.7 19.2 21.9
2014-Jul-24 08:00S 21°00' W 014°24'25 3.1 120 / 251028.1 19.8 21.9
2014-Jul-24 00:00S 20°42' W 014°06'12 6.0 130 / 221029.0 19.8 21.9
2014-Jul-23 22:00S 20°30' W 014°06'6 3.0 140 / 181027.3 20.4 22.0
2014-Jul-23 20:00S 20°24' W 014°06'0 0.0 240 / 241027.4 20.2 22.0
2014-Jul-23 18:00S 20°24' W 014°06'13 6.6 270 / 231026.2 20.4 22.0
2014-Jul-23 16:00S 20°36' W 014°00'18 9.0 150 / 231025.7 20.4 22.0
2014-Jul-23 14:00S 20°54' W 014°00'0 0.0 280 / 261025.6 20.4 22.0
2014-Jul-23 12:00S 20°54' W 014°00'6 1.5 140 / 231027.0 20.9 22.0
2014-Jul-23 08:00S 20°48' W 014°00'6 1.5 210 / 231024.9 20.1 22.0
2014-Jul-23 04:00S 20°54' W 014°00'0 0.0 280 / 151024.0 21.0 22.0
2014-Jul-23 00:00S 20°54' W 014°00'0 0.0 040 / 21024.9 19.3 22.1
2014-Jul-22 22:00S 20°54' W 014°00'   270 / 51024.8 20.7 22.0
Track history (hours):
 
Tides and Currents Weather Stations Pressure Air Temp Water Temp Dewpoint Dewpoint Depression Visibility Wind Speed Wind Dir Waves Ship Positions

Oceanographic research ship Nathaniel B. Palmer (USA)

Contact: Ethan Norris, ethan.norris.contractor@usap.gov

Detailed information on ship capabilities available from University of Delaware's Ocean Information Center and ARCUS's ALIAS (Arctic Logistics Information and Support) project.

More information available from US FCC via Universal Licensing System and Coast Guard Vessel Documentation Center.

Last reported at 2014-Aug-01 22:00 UTC. Time now 2014-Aug-01 22:36 UTC.
Position S 24°48' W 020°30'.

Type: Other ship. MMSI: 366610000.

Wind from 200 at 3 knots

Barometer 1025.1 mb
Air temperature 18.4 ° C
Water temperature 21.4 ° C

Date/timePositionNaut miles runAvg speedWind from/ knotsBaromVisibWave heightAir tempDewpointWater temp
2014-Aug-01 22:00S 24°48' W 020°30'2010.1 200 / 31025.1 18.4 21.4
2014-Aug-01 20:00S 24°36' W 020°12'2110.5 270 / 91024.4 18.6 21.6
2014-Aug-01 18:00S 24°18' W 020°00'2412.2 170 / 31024.0 18.4 21.6
2014-Aug-01 16:00S 24°00' W 019°42'2110.5 150 / 71023.9 19.0 21.6
2014-Aug-01 14:00S 23°42' W 019°30'2010.2 170 / 101024.3 19.0 21.3
2014-Aug-01 12:00S 23°30' W 019°12'4511.3 160 / 71025.1 19.0 21.3
2014-Aug-01 08:00S 22°54' W 018°42'37 9.3 160 / 111023.3 18.5 21.4
2014-Aug-01 04:00S 22°24' W 018°18'4110.2 170 / 91022.8 18.1 21.5
2014-Aug-01 00:00S 21°54' W 017°48'16 8.2 160 / 101023.6 19.2 21.8
2014-Jul-31 22:00S 21°42' W 017°36'8 4.1 170 / 111023.5 19.1 22.2
2014-Jul-31 20:00S 21°36' W 017°30'13 3.2 150 / 81022.7 19.3 22.3
2014-Jul-31 16:00S 21°30' W 017°18'0 0.0 230 / 111021.6 20.2 22.3
2014-Jul-31 14:00S 21°30' W 017°18'0 0.0 280 / 111022.1 20.3 22.2
2014-Jul-31 12:00S 21°30' W 017°18'0 0.0 330 / 141022.5 19.8 22.3
2014-Jul-31 10:00S 21°30' W 017°18'23 3.9 360 / 131021.6 19.6 22.3
2014-Jul-31 04:00S 21°24' W 016°54'6 2.8 230 / 181019.7 19.9 21.9
2014-Jul-31 02:00S 21°24' W 016°48'13 3.2 210 / 181019.4 20.1 21.8
2014-Jul-30 22:00S 21°18' W 016°36'8 4.1 310 / 181019.8 20.1 21.9
2014-Jul-30 20:00S 21°12' W 016°30'17 8.4 200 / 231017.9 18.5 21.9
2014-Jul-30 18:00S 21°12' W 016°12'0 0.0 160 / 121018.4 23.0 21.8
2014-Jul-30 16:00S 21°12' W 016°12'0 0.0 170 / 121018.4 23.9 21.9
2014-Jul-30 14:00S 21°12' W 016°12'18 8.9 280 / 101019.4 20.5 22.0
2014-Jul-30 12:00S 21°06' W 015°54'6 3.0 290 / 61020.1 20.7 21.8
2014-Jul-30 10:00S 21°12' W 015°54'0 0.0 100 / 71020.5 20.8 21.7
2014-Jul-30 08:00S 21°12' W 015°54'36 8.9 320 / 51019.7 19.7 21.6
2014-Jul-30 04:00S 21°00' W 015°18'2311.6 040 / 101019.6 19.1 21.9
2014-Jul-30 02:00S 20°54' W 014°54'2211.2 050 / 41020.7 18.7 21.9
2014-Jul-30 00:00S 20°54' W 014°30'0 0.0 040 / 121021.0 18.7 21.7
2014-Jul-29 22:00S 20°54' W 014°30'18 4.5 070 / 91021.3 20.4 21.8
2014-Jul-29 18:00S 21°00' W 014°12'11 5.6 080 / 91020.6 20.6 21.8
2014-Jul-29 16:00S 21°00' W 014°00'0 0.0 290 / 121020.3 20.9 21.7
2014-Jul-29 14:00S 21°00' W 014°00'23 5.8 300 / 111021.7 20.7 21.7
2014-Jul-29 10:00S 20°54' W 013°36'8 4.1 130 / 111023.7 19.5 21.4
2014-Jul-29 08:00S 20°48' W 013°30'6 1.5 300 / 141023.2 19.0 21.5
2014-Jul-29 04:00S 20°42' W 013°30'0 0.0 300 / 161022.8 19.8 21.6
2014-Jul-29 02:00S 20°42' W 013°30'18 8.9 350 / 171024.2 20.2 21.6
2014-Jul-29 00:00S 20°36' W 013°48'0 0.0 280 / 161025.1 20.0 21.7
2014-Jul-28 22:00S 20°36' W 013°48'6 2.8 320 / 181025.4 19.4 21.7
2014-Jul-28 20:00S 20°36' W 013°42'13 6.4 120 / 221025.1 20.2 21.7
2014-Jul-28 18:00S 20°42' W 013°54'23 3.9 110 / 201024.9 20.8 21.7
2014-Jul-28 12:00S 20°48' W 013°30'6 2.8 110 / 221027.3 20.1 21.5
2014-Jul-28 10:00S 20°48' W 013°36'0 0.0 030 / 261027.6 18.9 21.5
2014-Jul-28 04:00S 20°48' W 013°36'0 0.0 340 / 201025.9 20.3 21.6
2014-Jul-28 02:00S 20°48' W 013°36'6 1.0 230 / 201026.7 20.4 21.6
2014-Jul-27 20:00S 20°42' W 013°36'0 0.0 280 / 211027.0 20.1 21.6
2014-Jul-27 16:00S 20°42' W 013°36'0 0.0 200 / 241026.3 20.3 21.5
2014-Jul-27 14:00S 20°42' W 013°36'6 3.0 150 / 141027.1 20.3 21.5
2014-Jul-27 12:00S 20°48' W 013°36'6 3.0 350 / 201028.6 19.9 21.5
2014-Jul-27 10:00S 20°42' W 013°36'0 0.0 350 / 291028.6 19.5 21.5
2014-Jul-27 08:00S 20°42' W 013°36'0 0.0 240 / 231027.0 19.8 21.5
2014-Jul-27 04:00S 20°42' W 013°36'0 0.0 230 / 281026.3 18.7 21.5
2014-Jul-27 02:00S 20°42' W 013°36'6 3.0 170 / 231027.6 20.0 21.5
2014-Jul-27 00:00S 20°48' W 013°36'0 0.0 010 / 231028.5 18.5 21.5
2014-Jul-26 22:00S 20°48' W 013°36'0 0.0 140 / 211027.7 20.1 21.6
2014-Jul-26 20:00S 20°48' W 013°36'0 0.0 130 / 231027.1 19.9 21.6
2014-Jul-26 16:00S 20°48' W 013°36'11 5.6 360 / 231026.9 20.2 21.6
2014-Jul-26 14:00S 20°48' W 013°24'8 2.1 070 / 281028.4 17.9 21.6
2014-Jul-26 10:00S 20°42' W 013°18'8 4.1 270 / 251029.0 19.2 21.6
2014-Jul-26 08:00S 20°36' W 013°12'6 1.5 250 / 211028.0 20.1 21.6
2014-Jul-26 04:00S 20°30' W 013°12'2311.6 070 / 181026.3 20.6 21.6
2014-Jul-26 02:00S 20°36' W 012°48'18 8.9 100 / 251028.1 23.4 21.5
2014-Jul-26 00:00S 20°30' W 012°30'13 6.4 090 / 271029.3 20.6 21.3
2014-Jul-25 22:00S 20°36' W 012°42'17 8.4 110 / 271029.3 20.3 21.4
2014-Jul-25 20:00S 20°36' W 013°00'11 5.6 110 / 251027.8 20.4 21.6
2014-Jul-25 18:00S 20°36' W 013°12'34 8.6 110 / 301027.8 20.3 21.7
2014-Jul-25 14:00S 20°42' W 013°48'17 8.4 110 / 271028.3 20.1 21.8
2014-Jul-25 12:00S 20°42' W 014°06'6 2.8 100 / 281028.7 20.2 21.8
2014-Jul-25 10:00S 20°42' W 014°12'0 0.0 260 / 261029.7 20.1 21.9
2014-Jul-25 08:00S 20°42' W 014°12'32 8.0 090 / 261028.8 20.3 21.8
2014-Jul-25 04:00S 21°12' W 014°24'6 2.8 110 / 311029.2 19.4 21.8
2014-Jul-25 02:00S 21°12' W 014°30'8 4.1 120 / 251028.7 20.5 21.9
2014-Jul-25 00:00S 21°06' W 014°24'0 0.0 110 / 251030.9 19.7 21.9
2014-Jul-24 22:00S 21°06' W 014°24'0 0.0 270 / 281030.2 20.0 21.9
2014-Jul-24 20:00S 21°06' W 014°24'0 0.0 110 / 201029.0 19.2 21.9
2014-Jul-24 18:00S 21°06' W 014°24'11 5.6 310 / 221028.5 18.3 21.9
2014-Jul-24 16:00S 21°06' W 014°12'0 0.0 120 / 231028.5 22.6 21.9
2014-Jul-24 14:00S 21°06' W 014°12'13 6.6 140 / 261029.0 19.8 21.9
2014-Jul-24 12:00S 21°18' W 014°18'6 2.8 120 / 191030.9 19.2 21.9
2014-Jul-24 10:00S 21°18' W 014°24'18 9.0 130 / 241029.7 19.2 21.9
2014-Jul-24 08:00S 21°00' W 014°24'25 3.1 120 / 251028.1 19.8 21.9
2014-Jul-24 00:00S 20°42' W 014°06'12 6.0 130 / 221029.0 19.8 21.9
2014-Jul-23 22:00S 20°30' W 014°06'6 3.0 140 / 181027.3 20.4 22.0
2014-Jul-23 20:00S 20°24' W 014°06'0 0.0 240 / 241027.4 20.2 22.0
2014-Jul-23 18:00S 20°24' W 014°06'13 6.6 270 / 231026.2 20.4 22.0
2014-Jul-23 16:00S 20°36' W 014°00'18 9.0 150 / 231025.7 20.4 22.0
2014-Jul-23 14:00S 20°54' W 014°00'0 0.0 280 / 261025.6 20.4 22.0
2014-Jul-23 12:00S 20°54' W 014°00'6 1.5 140 / 231027.0 20.9 22.0
2014-Jul-23 08:00S 20°48' W 014°00'6 1.5 210 / 231024.9 20.1 22.0
2014-Jul-23 04:00S 20°54' W 014°00'0 0.0 280 / 151024.0 21.0 22.0
2014-Jul-23 00:00S 20°54' W 014°00'0 0.0 040 / 21024.9 19.3 22.1
2014-Jul-22 22:00S 20°54' W 014°00'   270 / 51024.8 20.7 22.0

Dump ship's entire track history